createdAt,value
2022-10-26T00:01:16.639Z,100589.34
2022-10-26T00:03:46.632Z,100596.41
2022-10-26T00:06:16.906Z,100592.94
2022-10-26T00:08:45.790Z,100600.25
2022-10-26T00:11:16.378Z,100601.41
2022-10-26T00:13:45.282Z,100596.69
2022-10-26T00:16:15.652Z,100600.44
2022-10-26T00:18:44.380Z,100598.59
2022-10-26T00:21:13.886Z,100606.34
2022-10-26T00:23:42.065Z,100609.75
2022-10-26T00:26:10.812Z,100608.56
2022-10-26T00:28:42.083Z,100612.97
2022-10-26T00:31:14.226Z,100610.47
2022-10-26T00:33:42.795Z,100617.97
2022-10-26T00:36:13.998Z,100610.72
2022-10-26T00:38:46.114Z,100614.50
2022-10-26T00:41:16.548Z,100619.03
2022-10-26T00:43:47.638Z,100615.88
2022-10-26T00:46:20.171Z,100612.81
2022-10-26T00:48:52.312Z,100616.19
2022-10-26T00:51:26.972Z,100612.72
2022-10-26T00:53:56.911Z,100620.06
2022-10-26T00:56:25.664Z,100625.00
2022-10-26T00:58:57.449Z,100615.81
2022-10-26T01:01:25.685Z,100615.91
2022-10-26T01:03:54.821Z,100616.03
2022-10-26T01:06:23.251Z,100617.72
2022-10-26T01:08:52.001Z,100619.66
2022-10-26T01:11:21.021Z,100614.34
2022-10-26T01:13:52.591Z,100618.75
2022-10-26T01:16:42.857Z,100619.19
2022-10-26T01:19:34.499Z,100617.75
2022-10-26T01:22:05.872Z,100620.44
2022-10-26T01:25:03.235Z,100619.88
2022-10-26T01:27:35.786Z,100618.09
2022-10-26T01:30:33.388Z,100610.19
2022-10-26T01:33:25.257Z,100618.53
2022-10-26T01:36:02.663Z,100619.78
2022-10-26T01:38:40.205Z,100609.75
2022-10-26T01:41:16.896Z,100611.44
2022-10-26T01:43:51.825Z,100606.03
2022-10-26T01:46:25.171Z,100616.41
2022-10-26T01:48:57.394Z,100616.94
2022-10-26T01:51:28.117Z,100611.44
2022-10-26T01:53:56.431Z,100605.94
2022-10-26T01:56:28.139Z,100621.22
2022-10-26T01:59:14.886Z,100627.88
2022-10-26T02:02:16.372Z,100621.06
2022-10-26T02:04:59.664Z,100618.38
2022-10-26T02:07:36.616Z,100619.19
2022-10-26T02:10:18.123Z,100610.16
2022-10-26T02:12:54.570Z,100608.81
2022-10-26T02:15:26.745Z,100610.16
2022-10-26T02:18:01.245Z,100617.69
2022-10-26T02:20:34.784Z,100613.09
2022-10-26T02:23:05.620Z,100624.56
2022-10-26T02:25:37.136Z,100623.53
2022-10-26T02:28:09.227Z,100621.63
2022-10-26T02:30:39.951Z,100621.72
2022-10-26T02:33:14.179Z,100622.50
2022-10-26T02:35:44.651Z,100625.19
2022-10-26T02:38:14.978Z,100628.13
2022-10-26T02:40:44.092Z,100638.34
2022-10-26T02:43:16.473Z,100632.28
2022-10-26T02:45:47.844Z,100632.75
2022-10-26T02:48:17.866Z,100635.31
2022-10-26T02:50:56.346Z,100626.50
2022-10-26T02:53:29.092Z,100644.75
2022-10-26T02:55:57.259Z,100657.25
2022-10-26T02:58:29.748Z,100649.97
2022-10-26T03:00:59.286Z,100651.41
2022-10-26T03:03:28.815Z,100650.84
2022-10-26T03:05:57.110Z,100654.81
2022-10-26T03:08:25.421Z,100660.66
2022-10-26T03:10:53.967Z,100661.34
2022-10-26T03:13:22.204Z,100661.75
2022-10-26T03:15:50.356Z,100666.38
2022-10-26T03:18:18.437Z,100669.53
2022-10-26T03:20:47.994Z,100675.81
2022-10-26T03:23:16.138Z,100673.00
2022-10-26T03:25:44.267Z,100681.66
2022-10-26T03:28:12.578Z,100679.94
2022-10-26T03:30:40.713Z,100682.66
2022-10-26T03:33:08.802Z,100688.06
2022-10-26T03:35:36.844Z,100693.00
2022-10-26T03:38:06.408Z,100694.94
2022-10-26T03:40:35.997Z,100703.22
2022-10-26T03:43:04.485Z,100697.38
2022-10-26T03:45:32.605Z,100696.44
2022-10-26T03:48:01.728Z,100716.38
2022-10-26T03:50:29.802Z,100715.06
2022-10-26T03:52:57.921Z,100713.63
2022-10-26T03:55:28.437Z,100713.75
2022-10-26T03:57:56.496Z,100714.16
2022-10-26T04:00:24.591Z,100721.41
2022-10-26T04:02:57.588Z,100729.00
2022-10-26T04:05:26.505Z,100726.91
2022-10-26T04:07:55.414Z,100724.41
2022-10-26T04:10:24.105Z,100720.94
2022-10-26T04:12:53.919Z,100726.47
2022-10-26T04:15:22.762Z,100730.75
2022-10-26T04:17:57.265Z,100722.66
2022-10-26T04:20:25.665Z,100725.03
2022-10-26T04:23:01.607Z,100729.63
2022-10-26T04:25:32.855Z,100726.28
2022-10-26T04:28:03.914Z,100729.28
2022-10-26T04:30:32.280Z,100739.91
2022-10-26T04:33:00.769Z,100734.19
2022-10-26T04:35:29.759Z,100747.75
2022-10-26T04:38:01.233Z,100757.22
2022-10-26T04:40:29.784Z,100758.94
2022-10-26T04:42:58.015Z,100749.84
2022-10-26T04:45:31.079Z,100764.63
2022-10-26T04:48:04.745Z,100757.50
2022-10-26T04:50:33.143Z,100763.56
2022-10-26T04:53:01.408Z,100762.13
2022-10-26T04:55:29.711Z,100762.91
2022-10-26T04:58:00.351Z,100762.78
2022-10-26T05:00:32.973Z,100777.06
2022-10-26T05:03:01.625Z,100775.03
2022-10-26T05:05:30.282Z,100783.63
2022-10-26T05:07:58.748Z,100781.75
2022-10-26T05:10:27.841Z,100795.00
2022-10-26T05:12:57.373Z,100792.94
2022-10-26T05:15:25.833Z,100799.84
2022-10-26T05:17:58.667Z,100799.00
2022-10-26T05:20:30.120Z,100800.06
2022-10-26T05:22:58.986Z,100800.66
2022-10-26T05:25:27.582Z,100810.47
2022-10-26T05:27:59.252Z,100806.44
2022-10-26T05:30:27.548Z,100810.84
2022-10-26T05:32:57.709Z,100814.16
2022-10-26T05:35:26.770Z,100823.38
2022-10-26T05:37:55.611Z,100815.88
2022-10-26T05:40:24.057Z,100835.91
2022-10-26T05:42:53.011Z,100837.97
2022-10-26T05:45:21.607Z,100824.81
2022-10-26T05:47:49.883Z,100827.66
2022-10-26T05:50:19.726Z,100845.34
2022-10-26T05:52:49.137Z,100843.19
2022-10-26T05:55:19.425Z,100845.13
2022-10-26T05:57:48.515Z,100848.63
2022-10-26T06:00:19.367Z,100856.13
2022-10-26T06:03:03.904Z,100858.28
2022-10-26T06:05:36.969Z,100860.06
2022-10-26T06:08:09.777Z,100865.38
2022-10-26T06:10:38.884Z,100855.44
2022-10-26T06:13:07.537Z,100865.97
2022-10-26T06:15:44.237Z,100864.66
2022-10-26T06:18:22.642Z,100865.56
2022-10-26T06:21:03.060Z,100860.28
2022-10-26T06:23:54.548Z,100872.13
2022-10-26T06:26:34.529Z,100861.56
2022-10-26T06:29:12.408Z,100872.63
2022-10-26T06:31:40.606Z,100873.69
2022-10-26T06:34:12.439Z,100871.88
2022-10-26T06:36:42.987Z,100876.28
2022-10-26T06:39:13.670Z,100888.56
2022-10-26T06:41:42.442Z,100891.06
2022-10-26T06:44:19.628Z,100895.00
2022-10-26T06:46:52.818Z,100899.38
2022-10-26T06:49:29.000Z,100902.88
2022-10-26T06:52:01.320Z,100905.66
2022-10-26T06:54:41.776Z,100912.41
2022-10-26T06:57:10.539Z,100911.69
2022-10-26T06:59:42.132Z,100915.75
2022-10-26T07:02:11.006Z,100921.03
2022-10-26T07:04:39.504Z,100916.94
2022-10-26T07:07:10.515Z,100923.16
2022-10-26T07:09:38.620Z,100920.91
2022-10-26T07:12:06.969Z,100924.16
2022-10-26T07:14:35.206Z,100928.78
2022-10-26T07:17:03.413Z,100929.78
2022-10-26T07:19:32.072Z,100932.72
2022-10-26T07:22:01.296Z,100933.34
2022-10-26T07:24:31.099Z,100937.72
2022-10-26T07:27:00.450Z,100937.22
2022-10-26T07:29:29.372Z,100941.81
2022-10-26T07:31:57.580Z,100937.78
2022-10-26T07:34:25.637Z,100944.34
2022-10-26T07:36:53.738Z,100943.91
2022-10-26T07:39:21.781Z,100943.00
2022-10-26T07:41:51.324Z,100944.81
2022-10-26T07:44:19.665Z,100946.47
2022-10-26T07:46:48.525Z,100946.53
2022-10-26T07:49:19.323Z,100947.72
2022-10-26T07:51:47.876Z,100945.31
2022-10-26T07:54:16.151Z,100948.28
2022-10-26T07:56:46.738Z,100945.97
2022-10-26T07:59:17.195Z,100948.38
2022-10-26T08:01:45.964Z,100939.78
2022-10-26T08:04:14.076Z,100941.31
2022-10-26T08:06:42.440Z,100942.59
2022-10-26T08:09:10.531Z,100946.22
2022-10-26T08:11:38.610Z,100952.47
2022-10-26T08:14:07.022Z,100942.38
2022-10-26T08:16:36.579Z,100949.75
2022-10-26T08:19:04.689Z,100952.94
2022-10-26T08:21:39.501Z,100953.91
2022-10-26T08:24:09.093Z,100963.31
2022-10-26T08:26:37.634Z,100959.94
2022-10-26T08:29:05.779Z,100955.28
2022-10-26T08:31:34.398Z,100955.66
2022-10-26T08:34:04.557Z,100954.31
2022-10-26T08:36:32.838Z,100953.69
2022-10-26T08:39:01.084Z,100960.78
2022-10-26T08:41:37.463Z,100960.09
2022-10-26T08:44:16.451Z,100957.66
2022-10-26T08:46:47.992Z,100964.41
2022-10-26T08:49:24.422Z,100975.47
2022-10-26T08:51:57.508Z,100968.53
2022-10-26T08:54:38.461Z,100959.94
2022-10-26T08:57:17.601Z,100967.31
2022-10-26T08:59:50.580Z,100977.50
2022-10-26T09:02:19.231Z,100974.81
2022-10-26T09:04:48.921Z,100979.16
2022-10-26T09:07:33.715Z,100981.66
2022-10-26T09:10:13.326Z,100978.31
2022-10-26T09:12:49.954Z,100978.91
2022-10-26T09:15:27.769Z,100977.91
2022-10-26T09:18:06.703Z,100975.41
2022-10-26T09:21:02.999Z,100980.97
2022-10-26T09:23:51.151Z,100989.34
2022-10-26T09:26:30.009Z,100977.63
2022-10-26T09:29:03.066Z,100972.19
2022-10-26T09:31:32.994Z,100980.56
2022-10-26T09:34:06.554Z,100980.84
2022-10-26T09:36:37.560Z,100978.84
2022-10-26T09:39:15.713Z,100980.44
2022-10-26T09:41:48.816Z,100971.53
2022-10-26T09:44:27.465Z,100970.06
2022-10-26T09:46:59.835Z,100964.09
2022-10-26T09:49:34.851Z,100966.06
2022-10-26T09:52:05.612Z,100967.53
2022-10-26T09:54:33.820Z,100956.25
2022-10-26T09:57:03.089Z,100959.91
2022-10-26T09:59:35.040Z,100957.91
2022-10-26T10:02:27.477Z,100970.97
2022-10-26T10:04:55.546Z,100972.59
2022-10-26T10:07:25.059Z,100975.75
2022-10-26T10:10:09.359Z,100975.78
2022-10-26T10:12:37.426Z,100971.06
2022-10-26T10:15:06.055Z,100979.19
2022-10-26T10:17:35.131Z,100970.97
2022-10-26T10:20:13.562Z,100974.25
2022-10-26T10:22:56.378Z,100962.03
2022-10-26T10:25:33.576Z,100966.81
2022-10-26T10:28:01.675Z,100967.97
2022-10-26T10:30:32.210Z,100968.19
2022-10-26T10:33:08.188Z,100970.44
2022-10-26T10:35:37.027Z,100968.22
2022-10-26T10:38:06.655Z,100972.47
2022-10-26T10:40:35.846Z,100972.13
2022-10-26T10:43:08.266Z,100975.34
2022-10-26T10:45:37.434Z,100974.84
2022-10-26T10:48:14.732Z,100957.06
2022-10-26T10:50:54.421Z,100959.22
2022-10-26T10:53:27.202Z,100970.81
2022-10-26T10:56:10.787Z,100964.44
2022-10-26T10:58:49.394Z,100968.13
2022-10-26T11:01:22.915Z,100970.78
2022-10-26T11:04:16.824Z,100971.44
2022-10-26T11:06:46.644Z,100971.34
2022-10-26T11:09:20.395Z,100965.44
2022-10-26T11:11:52.096Z,100960.97
2022-10-26T11:14:25.293Z,100960.84
2022-10-26T11:16:58.131Z,100971.69
2022-10-26T11:19:33.880Z,100967.28
2022-10-26T11:22:06.268Z,100966.72
2022-10-26T11:24:44.046Z,100972.22
2022-10-26T11:27:17.198Z,100965.44
2022-10-26T11:29:53.435Z,100969.34
2022-10-26T11:32:25.131Z,100965.78
2022-10-26T11:34:59.651Z,100962.19
2022-10-26T11:37:37.604Z,100966.25
2022-10-26T11:40:20.225Z,100968.28
2022-10-26T11:42:53.611Z,100968.59
2022-10-26T11:45:26.565Z,100975.25
2022-10-26T11:47:59.472Z,100964.09
2022-10-26T11:50:34.028Z,100965.88
2022-10-26T11:53:07.561Z,100964.06
2022-10-26T11:55:38.296Z,100971.28
2022-10-26T11:58:06.857Z,100966.75
2022-10-26T12:00:38.821Z,100969.91
2022-10-26T12:03:11.724Z,100970.06
2022-10-26T12:05:47.996Z,100961.50
2022-10-26T12:08:20.377Z,100959.63
2022-10-26T12:10:57.437Z,100958.56
2022-10-26T12:13:34.218Z,100963.06
2022-10-26T12:16:08.452Z,100966.66
2022-10-26T12:18:55.062Z,100959.69
2022-10-26T12:21:28.300Z,100958.59
2022-10-26T12:23:58.830Z,100960.91
2022-10-26T12:26:53.665Z,100965.44
2022-10-26T12:29:46.109Z,100969.09
2022-10-26T12:32:50.828Z,100960.09
2022-10-26T12:35:37.577Z,100973.28
2022-10-26T12:38:44.660Z,100976.94
2022-10-26T12:41:20.931Z,100978.38
2022-10-26T12:43:50.406Z,100988.22
2022-10-26T12:46:43.127Z,100980.00
2022-10-26T12:49:58.446Z,100978.56
2022-10-26T12:52:50.225Z,100981.44
2022-10-26T12:56:04.057Z,100991.41
2022-10-26T12:58:43.803Z,100994.94
2022-10-26T13:01:43.261Z,100996.56
2022-10-26T13:04:50.671Z,100994.38
2022-10-26T13:07:22.173Z,100999.81
2022-10-26T13:09:59.548Z,101006.38
2022-10-26T13:12:29.182Z,100998.47
2022-10-26T13:15:03.217Z,101001.31
2022-10-26T13:20:08.700Z,101011.16
2022-10-26T13:22:47.704Z,101022.66
2022-10-26T13:25:23.942Z,101018.34
2022-10-26T13:28:04.547Z,101029.00
2022-10-26T13:30:45.890Z,101027.06
2022-10-26T13:33:32.561Z,101023.63
2022-10-26T13:36:07.864Z,101029.56
2022-10-26T13:38:38.698Z,101034.25
2022-10-26T13:41:20.249Z,101037.22
2022-10-26T13:43:49.645Z,101032.03
2022-10-26T13:46:27.684Z,101039.59
2022-10-26T13:49:05.965Z,101050.63
2022-10-26T13:51:42.276Z,101046.59
2022-10-26T13:54:23.067Z,101053.69
2022-10-26T13:57:03.205Z,101054.78
2022-10-26T13:59:34.388Z,101053.34
2022-10-26T14:02:17.035Z,101050.22
2022-10-26T14:04:49.374Z,101067.19
2022-10-26T14:07:23.254Z,101065.16
2022-10-26T14:09:56.469Z,101069.56
2022-10-26T14:12:26.095Z,101069.34
2022-10-26T14:14:55.412Z,101074.84
2022-10-26T14:17:27.197Z,101067.53
2022-10-26T14:19:56.839Z,101067.84
2022-10-26T14:22:27.978Z,101071.00
2022-10-26T14:24:57.324Z,101077.19
2022-10-26T14:27:28.363Z,101077.78
2022-10-26T14:30:20.915Z,101070.81
2022-10-26T14:32:46.007Z,101077.22
2022-10-26T14:35:16.254Z,101079.22
2022-10-26T14:37:50.816Z,101078.34
2022-10-26T14:40:20.816Z,101072.66
2022-10-26T14:42:51.730Z,101086.41
2022-10-26T14:45:47.216Z,101085.28
2022-10-26T14:48:22.340Z,101088.50
2022-10-26T14:51:03.196Z,101094.44
2022-10-26T14:53:36.311Z,101087.03
2022-10-26T14:56:07.789Z,101090.66
2022-10-26T14:58:36.430Z,101097.81
2022-10-26T15:01:36.284Z,101096.22
2022-10-26T15:04:07.427Z,101096.09
2022-10-26T15:06:46.606Z,101102.44
2022-10-26T15:09:33.345Z,101104.84
2022-10-26T15:12:03.109Z,101109.63
2022-10-26T15:14:31.702Z,101116.50
2022-10-26T15:17:00.397Z,101123.66
2022-10-26T15:19:29.212Z,101119.38
2022-10-26T15:21:59.091Z,101113.34
2022-10-26T15:24:34.515Z,101125.63
2022-10-26T15:27:13.373Z,101120.84
2022-10-26T15:29:44.230Z,101120.69
2022-10-26T15:32:31.549Z,101127.53
2022-10-26T15:35:27.486Z,101129.94
2022-10-26T15:37:58.729Z,101133.13
2022-10-26T15:40:29.240Z,101138.53
2022-10-26T15:43:00.997Z,101147.44
2022-10-26T15:45:33.244Z,101146.47
2022-10-26T15:48:18.315Z,101148.72
2022-10-26T15:50:46.420Z,101155.56
2022-10-26T15:53:20.747Z,101161.09
2022-10-26T15:55:49.275Z,101171.75
2022-10-26T15:58:17.786Z,101175.41
2022-10-26T16:00:47.352Z,101169.69
2022-10-26T16:03:20.177Z,101163.50
2022-10-26T16:05:48.782Z,101165.41
2022-10-26T16:08:19.520Z,101170.97
2022-10-26T16:10:48.668Z,101174.13
2022-10-26T16:13:17.308Z,101172.53
2022-10-26T16:15:46.226Z,101179.84
2022-10-26T16:18:15.141Z,101179.84
2022-10-26T16:20:47.065Z,101180.63
2022-10-26T16:23:15.618Z,101186.69
2022-10-26T16:25:46.750Z,101188.28
2022-10-26T16:28:17.217Z,101185.13
2022-10-26T16:30:46.037Z,101189.56
2022-10-26T16:33:14.596Z,101186.53
2022-10-26T16:35:44.377Z,101193.22
2022-10-26T16:38:12.533Z,101191.44
2022-10-26T16:40:42.700Z,101199.88
2022-10-26T16:43:12.506Z,101200.34
2022-10-26T16:45:42.181Z,101215.13
2022-10-26T16:48:14.995Z,101205.44
2022-10-26T16:50:43.248Z,101218.94
2022-10-26T16:53:11.513Z,101209.88
2022-10-26T16:55:39.749Z,101208.47
2022-10-26T16:58:08.062Z,101211.63
2022-10-26T17:00:38.172Z,101213.06
2022-10-26T17:03:06.434Z,101219.25
2022-10-26T17:05:34.858Z,101226.38
2022-10-26T17:08:03.226Z,101224.63
2022-10-26T17:10:31.277Z,101214.13
2022-10-26T17:12:59.517Z,101210.94
2022-10-26T17:15:29.121Z,101216.47
2022-10-26T17:17:58.875Z,101224.06
2022-10-26T17:20:27.477Z,101229.28
2022-10-26T17:22:58.240Z,101228.69
2022-10-26T17:25:26.484Z,101237.09
2022-10-26T17:27:55.484Z,101239.31
2022-10-26T17:30:23.836Z,101227.22
2022-10-26T17:32:52.451Z,101231.47
2022-10-26T17:35:22.879Z,101234.97
2022-10-26T17:37:51.076Z,101234.97
2022-10-26T17:40:19.456Z,101231.69
2022-10-26T17:42:47.837Z,101231.22
2022-10-26T17:45:16.088Z,101235.19
2022-10-26T17:47:44.232Z,101239.00
2022-10-26T17:50:12.646Z,101240.41
2022-10-26T17:52:42.280Z,101240.41
2022-10-26T17:55:10.858Z,101242.78
2022-10-26T17:57:38.976Z,101249.63
2022-10-26T18:00:08.042Z,101244.56
2022-10-26T18:02:37.683Z,101251.84
2022-10-26T18:05:07.591Z,101250.56
2022-10-26T18:07:36.193Z,101246.59
2022-10-26T18:10:14.056Z,101248.16
2022-10-26T18:12:54.748Z,101244.16
2022-10-26T18:15:24.886Z,101244.63
2022-10-26T18:17:58.210Z,101249.91
2022-10-26T18:20:28.786Z,101253.09
2022-10-26T18:22:57.514Z,101249.09
2022-10-26T18:25:27.764Z,101263.41
2022-10-26T18:27:55.954Z,101259.56
2022-10-26T18:30:24.586Z,101257.03
2022-10-26T18:32:53.960Z,101266.72
2022-10-26T18:35:22.668Z,101273.69
2022-10-26T18:37:51.410Z,101273.53
2022-10-26T18:40:19.705Z,101270.50
2022-10-26T18:42:49.136Z,101270.22
2022-10-26T18:45:17.428Z,101271.31
2022-10-26T18:47:45.555Z,101268.75
2022-10-26T18:50:13.607Z,101283.19
2022-10-26T18:52:41.728Z,101280.00
2022-10-26T18:55:10.997Z,101280.75
2022-10-26T18:57:39.412Z,101281.50
2022-10-26T19:00:10.712Z,101290.75
2022-10-26T19:02:38.858Z,101295.31
2022-10-26T19:05:08.249Z,101291.31
2022-10-26T19:07:37.993Z,101292.72
2022-10-26T19:10:07.767Z,101301.00
2022-10-26T19:12:35.857Z,101299.69
2022-10-26T19:15:07.137Z,101302.19
2022-10-26T19:17:36.625Z,101305.56
2022-10-26T19:20:05.558Z,101300.84
2022-10-26T19:22:33.763Z,101298.31
2022-10-26T19:25:03.864Z,101293.53
2022-10-26T19:27:32.029Z,101309.19
2022-10-26T19:30:00.328Z,101301.41
2022-10-26T19:32:29.323Z,101306.50
2022-10-26T19:34:58.796Z,101308.19
2022-10-26T19:37:28.485Z,101301.84
2022-10-26T19:39:56.926Z,101310.03
2022-10-26T19:42:25.325Z,101314.81
2022-10-26T19:44:53.372Z,101314.97
2022-10-26T19:47:21.421Z,101312.88
2022-10-26T19:49:49.749Z,101317.50
2022-10-26T19:54:52.156Z,101316.88
2022-10-26T19:57:20.283Z,101319.06
2022-10-26T19:59:48.561Z,101318.09
2022-10-26T20:02:16.665Z,101324.75
2022-10-26T20:04:45.412Z,101333.47
2022-10-26T20:07:15.339Z,101330.28
2022-10-26T20:09:44.847Z,101324.28
2022-10-26T20:12:13.992Z,101326.78
2022-10-26T20:14:42.308Z,101324.28
2022-10-26T20:17:10.404Z,101328.69
2022-10-26T20:19:38.522Z,101339.00
2022-10-26T20:22:06.716Z,101331.69
2022-10-26T20:24:34.830Z,101330.97
2022-10-26T20:27:04.481Z,101336.38
2022-10-26T20:29:32.690Z,101335.84
2022-10-26T20:32:00.768Z,101334.78
2022-10-26T20:37:02.130Z,101336.72
2022-10-26T20:39:30.760Z,101335.44
2022-10-26T20:41:59.517Z,101340.34
2022-10-26T20:44:33.175Z,101334.28
2022-10-26T20:47:01.796Z,101341.13
2022-10-26T20:49:30.369Z,101332.72
2022-10-26T20:52:21.881Z,101335.09
2022-10-26T20:54:55.137Z,101335.34
2022-10-26T20:57:30.220Z,101338.38
2022-10-26T21:00:04.157Z,101326.25
2022-10-26T21:02:32.556Z,101329.25
2022-10-26T21:05:00.674Z,101325.78
2022-10-26T21:07:28.754Z,101324.28
2022-10-26T21:09:56.867Z,101327.50
2022-10-26T21:12:25.063Z,101318.41
2022-10-26T21:14:53.222Z,101324.09
2022-10-26T21:17:22.891Z,101329.97
2022-10-26T21:19:50.979Z,101328.53
2022-10-26T21:22:19.345Z,101329.88
2022-10-26T21:24:47.646Z,101330.03
2022-10-26T21:27:15.896Z,101331.03
2022-10-26T21:29:43.975Z,101327.53
2022-10-26T21:32:12.103Z,101338.34
2022-10-26T21:34:41.576Z,101333.25
2022-10-26T21:37:09.759Z,101331.19
2022-10-26T21:39:38.033Z,101326.22
2022-10-26T21:42:06.233Z,101325.09
2022-10-26T21:44:40.902Z,101323.50
2022-10-26T21:47:10.071Z,101318.72
2022-10-26T21:49:38.299Z,101331.53
2022-10-26T21:52:09.159Z,101324.22
2022-10-26T21:54:37.452Z,101330.06
2022-10-26T21:57:05.677Z,101330.28
2022-10-26T21:59:33.817Z,101331.69
2022-10-26T22:02:01.950Z,101335.16
2022-10-26T22:04:30.575Z,101325.81
2022-10-26T22:06:58.713Z,101335.13
2022-10-26T22:09:28.124Z,101335.56
2022-10-26T22:11:56.208Z,101328.72
2022-10-26T22:14:24.558Z,101333.34
2022-10-26T22:16:52.727Z,101329.97
2022-10-26T22:19:20.883Z,101329.75
2022-10-26T22:21:48.934Z,101327.81
2022-10-26T22:24:17.211Z,101333.66
2022-10-26T22:26:46.788Z,101332.75
2022-10-26T22:29:14.863Z,101330.03
2022-10-26T22:31:42.981Z,101329.53
2022-10-26T22:34:15.772Z,101333.69
2022-10-26T22:36:44.304Z,101333.34
2022-10-26T22:39:12.446Z,101329.81
2022-10-26T22:41:40.567Z,101330.31
2022-10-26T22:44:10.152Z,101335.47
2022-10-26T22:46:38.147Z,101336.50
2022-10-26T22:49:06.263Z,101326.88
2022-10-26T22:51:35.968Z,101341.50
2022-10-26T22:54:05.966Z,101340.25
2022-10-26T22:56:36.103Z,101334.38
2022-10-26T22:59:04.549Z,101335.00
2022-10-26T23:01:37.227Z,101333.56
2022-10-26T23:04:05.907Z,101338.97
2022-10-26T23:06:34.427Z,101338.69
2022-10-26T23:09:02.638Z,101342.47
2022-10-26T23:11:30.901Z,101332.66
2022-10-26T23:14:00.571Z,101329.94
2022-10-26T23:16:29.978Z,101329.63
2022-10-26T23:18:59.861Z,101328.66
2022-10-26T23:21:29.625Z,101322.19
2022-10-26T23:23:58.217Z,101329.19
2022-10-26T23:26:26.371Z,101329.00
2022-10-26T23:28:54.458Z,101329.81
2022-10-26T23:31:24.144Z,101335.22
2022-10-26T23:33:53.145Z,101333.00
2022-10-26T23:36:22.938Z,101336.47
2022-10-26T23:38:51.008Z,101336.97
2022-10-26T23:41:19.167Z,101334.59
2022-10-26T23:43:47.542Z,101337.13
2022-10-26T23:46:16.069Z,101337.78
2022-10-26T23:48:44.384Z,101345.72
2022-10-26T23:51:12.610Z,101348.91
2022-10-26T23:53:42.106Z,101341.00
2022-10-26T23:56:10.278Z,101342.41
2022-10-26T23:58:38.564Z,101343.53
